createdAt,value
2023-04-08T00:00:46.539Z,36.81
2023-04-08T00:03:14.366Z,36.86
2023-04-08T00:05:42.402Z,36.77
2023-04-08T00:08:10.198Z,36.65
2023-04-08T00:10:38.080Z,36.52
2023-04-08T00:13:05.991Z,36.67
2023-04-08T00:15:33.828Z,36.41
2023-04-08T00:18:02.366Z,36.22
2023-04-08T00:20:30.147Z,36.34
2023-04-08T00:22:58.099Z,36.15
2023-04-08T00:25:26.062Z,36.21
2023-04-08T00:27:54.171Z,36.52
2023-04-08T00:30:22.189Z,36.35
2023-04-08T00:32:50.181Z,36.50
2023-04-08T00:35:18.035Z,36.68
2023-04-08T00:37:46.144Z,36.45
2023-04-08T00:40:14.049Z,36.57
2023-04-08T00:42:42.184Z,36.36
2023-04-08T00:45:10.801Z,37.07
2023-04-08T00:47:38.902Z,38.38
2023-04-08T00:50:10.774Z,37.57
2023-04-08T00:52:39.892Z,37.04
2023-04-08T00:55:08.049Z,36.27
2023-04-08T00:57:36.768Z,36.13
2023-04-08T01:00:06.591Z,36.09
2023-04-08T01:02:39.554Z,35.69
2023-04-08T01:05:15.340Z,35.84
2023-04-08T01:07:50.840Z,35.75
2023-04-08T01:10:27.770Z,36.24
2023-04-08T01:12:58.041Z,36.24
2023-04-08T01:15:31.058Z,36.38
2023-04-08T01:18:01.895Z,36.35
2023-04-08T01:20:30.767Z,36.44
2023-04-08T01:23:08.754Z,36.58
2023-04-08T01:25:38.604Z,36.94
2023-04-08T01:28:11.704Z,36.84
2023-04-08T01:30:41.444Z,37.13
2023-04-08T01:33:13.942Z,36.97
2023-04-08T01:35:42.484Z,36.91
2023-04-08T01:38:15.587Z,36.98
2023-04-08T01:40:45.364Z,36.92
2023-04-08T01:43:15.998Z,36.79
2023-04-08T01:45:49.319Z,36.51
2023-04-08T01:48:17.433Z,36.70
2023-04-08T01:50:46.189Z,36.49
2023-04-08T01:53:14.773Z,36.48
2023-04-08T01:55:43.898Z,36.26
2023-04-08T01:58:20.702Z,36.20
2023-04-08T02:00:49.775Z,36.29
2023-04-08T02:03:21.934Z,36.19
2023-04-08T02:05:49.877Z,36.41
2023-04-08T02:08:17.749Z,36.43
2023-04-08T02:10:45.677Z,36.61
2023-04-08T02:13:13.443Z,36.29
2023-04-08T02:15:48.662Z,36.81
2023-04-08T02:18:22.719Z,36.78
2023-04-08T02:21:16.113Z,36.50
2023-04-08T02:23:49.466Z,36.43
2023-04-08T02:26:19.118Z,36.69
2023-04-08T02:28:50.514Z,36.70
2023-04-08T02:31:20.237Z,36.58
2023-04-08T02:33:51.684Z,36.46
2023-04-08T02:36:20.944Z,36.63
2023-04-08T02:38:50.373Z,36.82
2023-04-08T02:41:18.355Z,36.67
2023-04-08T02:43:48.221Z,36.69
2023-04-08T02:46:16.108Z,37.13
2023-04-08T02:48:44.056Z,37.04
2023-04-08T02:51:11.757Z,37.09
2023-04-08T02:53:39.594Z,37.17
2023-04-08T02:56:10.553Z,36.95
2023-04-08T02:58:38.765Z,37.26
2023-04-08T03:01:09.018Z,37.61
2023-04-08T03:03:37.132Z,37.72
2023-04-08T03:06:05.281Z,37.83
2023-04-08T03:08:33.858Z,37.95
2023-04-08T03:11:02.834Z,37.77
2023-04-08T03:13:31.820Z,37.64
2023-04-08T03:15:59.641Z,38.04
2023-04-08T03:18:27.473Z,37.99
2023-04-08T03:20:55.565Z,37.85
2023-04-08T03:23:25.332Z,37.47
2023-04-08T03:25:53.107Z,37.57
2023-04-08T03:28:20.959Z,37.50
2023-04-08T03:30:48.768Z,37.86
2023-04-08T03:33:16.713Z,37.94
2023-04-08T03:35:44.522Z,37.50
2023-04-08T03:38:12.284Z,37.64
2023-04-08T03:40:40.065Z,37.83
2023-04-08T03:43:09.033Z,37.81
2023-04-08T03:45:36.877Z,37.60
2023-04-08T03:48:04.958Z,37.90
2023-04-08T03:50:32.912Z,37.74
2023-04-08T03:53:00.701Z,37.73
2023-04-08T03:55:28.487Z,37.73
2023-04-08T03:57:56.174Z,37.66
2023-04-08T04:00:24.179Z,37.75
2023-04-08T04:02:51.842Z,37.78
2023-04-08T04:05:19.604Z,37.73
2023-04-08T04:07:47.264Z,38.08
2023-04-08T04:10:15.054Z,37.63
2023-04-08T04:12:42.967Z,37.43
2023-04-08T04:15:11.292Z,37.61
2023-04-08T04:17:39.185Z,37.37
2023-04-08T04:20:07.780Z,37.52
2023-04-08T04:22:35.601Z,37.66
2023-04-08T04:25:03.270Z,37.53
2023-04-08T04:27:31.146Z,37.88
2023-04-08T04:29:59.074Z,37.99
2023-04-08T04:32:27.084Z,37.98
2023-04-08T04:34:55.191Z,38.29
2023-04-08T04:37:23.461Z,38.12
2023-04-08T04:39:51.052Z,38.62
2023-04-08T04:42:18.831Z,38.59
2023-04-08T04:44:46.571Z,38.80
2023-04-08T04:47:14.425Z,38.95
2023-04-08T04:49:42.154Z,38.81
2023-04-08T04:52:10.040Z,38.89
2023-04-08T04:54:38.160Z,39.18
2023-04-08T04:57:06.345Z,39.16
2023-04-08T04:59:34.059Z,39.40
2023-04-08T05:02:01.957Z,39.29
2023-04-08T05:04:29.894Z,39.35
2023-04-08T05:07:00.110Z,39.35
2023-04-08T05:09:29.276Z,39.56
2023-04-08T05:11:57.259Z,39.39
2023-04-08T05:14:24.977Z,39.57
2023-04-08T05:16:52.816Z,39.54
2023-04-08T05:19:20.647Z,39.57
2023-04-08T05:21:48.377Z,39.51
2023-04-08T05:24:16.597Z,39.54
2023-04-08T05:26:44.423Z,39.93
2023-04-08T05:29:12.276Z,39.86
2023-04-08T05:31:39.983Z,39.99
2023-04-08T05:34:07.807Z,39.96
2023-04-08T05:36:35.491Z,40.04
2023-04-08T05:39:03.531Z,40.01
2023-04-08T05:41:31.498Z,40.12
2023-04-08T05:43:59.287Z,39.71
2023-04-08T05:46:27.588Z,39.63
2023-04-08T05:48:55.287Z,39.50
2023-04-08T05:51:22.972Z,39.65
2023-04-08T05:53:50.831Z,39.66
2023-04-08T05:56:18.668Z,39.95
2023-04-08T05:58:46.804Z,39.68
2023-04-08T06:01:14.549Z,39.77
2023-04-08T06:03:42.657Z,39.45
2023-04-08T06:06:14.489Z,39.48
2023-04-08T06:08:42.272Z,39.70
2023-04-08T06:11:10.258Z,40.11
2023-04-08T06:13:38.604Z,40.13
2023-04-08T06:16:21.376Z,40.54
2023-04-08T06:18:49.774Z,40.42
2023-04-08T06:21:19.392Z,39.72
2023-04-08T06:23:47.316Z,39.80
2023-04-08T06:26:16.636Z,39.77
2023-04-08T06:28:44.360Z,39.51
2023-04-08T06:31:12.279Z,39.28
2023-04-08T06:33:40.227Z,39.14
2023-04-08T06:36:08.623Z,39.04
2023-04-08T06:38:37.138Z,38.85
2023-04-08T06:41:08.724Z,38.87
2023-04-08T06:43:38.030Z,38.67
2023-04-08T06:46:06.329Z,38.36
2023-04-08T06:48:34.559Z,38.15
2023-04-08T06:51:02.451Z,37.66
2023-04-08T06:53:31.460Z,37.75
2023-04-08T06:55:59.487Z,37.50
2023-04-08T06:58:27.518Z,37.22
2023-04-08T07:00:56.582Z,36.60
2023-04-08T07:03:24.561Z,35.96
2023-04-08T07:05:52.983Z,36.50
2023-04-08T07:08:20.905Z,36.09
2023-04-08T07:10:49.212Z,36.26
2023-04-08T07:13:17.807Z,35.66
2023-04-08T07:15:45.510Z,35.19
2023-04-08T07:18:14.016Z,35.42
2023-04-08T07:20:42.252Z,35.41
2023-04-08T07:23:09.999Z,34.95
2023-04-08T07:25:37.981Z,34.67
2023-04-08T07:28:05.651Z,34.71
2023-04-08T07:30:33.481Z,34.47
2023-04-08T07:33:01.401Z,34.29
2023-04-08T07:35:29.842Z,34.45
2023-04-08T07:37:58.152Z,34.21
2023-04-08T07:40:26.329Z,34.49
2023-04-08T07:42:54.832Z,34.53
2023-04-08T07:45:22.581Z,33.81
2023-04-08T07:47:50.563Z,33.39
2023-04-08T07:50:18.649Z,33.65
2023-04-08T07:52:46.364Z,33.70
2023-04-08T07:55:14.140Z,34.05
2023-04-08T07:57:41.939Z,33.93
2023-04-08T08:00:10.050Z,34.34
2023-04-08T08:02:44.685Z,34.43
2023-04-08T08:05:12.583Z,34.65
2023-04-08T08:07:40.681Z,34.51
2023-04-08T08:10:09.330Z,34.41
2023-04-08T08:12:37.750Z,34.25
2023-04-08T08:15:06.184Z,34.04
2023-04-08T08:17:34.197Z,33.96
2023-04-08T08:20:01.936Z,33.75
2023-04-08T08:22:30.197Z,33.79
2023-04-08T08:24:58.160Z,33.67
2023-04-08T08:27:26.449Z,33.91
2023-04-08T08:29:54.265Z,33.68
2023-04-08T08:32:22.092Z,33.45
2023-04-08T08:34:50.583Z,33.40
2023-04-08T08:37:18.257Z,34.00
2023-04-08T08:39:46.190Z,34.16
2023-04-08T08:42:24.768Z,33.77
2023-04-08T08:44:52.887Z,33.23
2023-04-08T08:47:20.991Z,33.95
2023-04-08T08:49:49.393Z,34.20
2023-04-08T08:52:18.378Z,34.40
2023-04-08T08:54:46.505Z,34.41
2023-04-08T08:57:19.191Z,34.75
2023-04-08T08:59:47.952Z,34.78
2023-04-08T09:02:30.430Z,34.58
2023-04-08T09:05:03.939Z,34.51
2023-04-08T09:07:36.954Z,34.71
2023-04-08T09:10:05.085Z,35.38
2023-04-08T09:12:32.953Z,35.40
2023-04-08T09:15:09.041Z,36.13
2023-04-08T09:17:39.837Z,36.45
2023-04-08T09:20:12.370Z,36.10
2023-04-08T09:23:02.864Z,36.09
2023-04-08T09:25:32.897Z,36.40
2023-04-08T09:28:03.167Z,42.42
2023-04-08T09:30:32.929Z,39.24
2023-04-08T09:33:03.699Z,37.45
2023-04-08T09:35:31.942Z,36.82
2023-04-08T09:38:00.013Z,37.60
2023-04-08T09:40:28.020Z,36.70
2023-04-08T09:42:57.866Z,36.28
2023-04-08T09:45:28.280Z,36.45
2023-04-08T09:48:10.186Z,36.12
2023-04-08T09:50:47.023Z,35.97
2023-04-08T09:53:23.129Z,36.51
2023-04-08T09:55:55.539Z,36.45
2023-04-08T09:58:39.214Z,36.09
2023-04-08T10:01:09.410Z,35.71
2023-04-08T10:03:51.487Z,42.37
2023-04-08T10:06:22.011Z,37.59
2023-04-08T10:08:50.137Z,37.13
2023-04-08T10:11:18.241Z,43.06
2023-04-08T10:13:46.440Z,41.50
2023-04-08T10:16:26.230Z,38.90
2023-04-08T10:18:58.319Z,38.57
2023-04-08T10:21:48.740Z,37.94
2023-04-08T10:24:16.682Z,37.47
2023-04-08T10:26:46.209Z,37.58
2023-04-08T10:29:21.484Z,37.74
2023-04-08T10:31:53.234Z,37.69
2023-04-08T10:34:23.837Z,38.07
2023-04-08T10:36:51.715Z,38.41
2023-04-08T10:39:19.619Z,38.02
2023-04-08T10:41:54.188Z,38.01
2023-04-08T10:44:26.979Z,38.27
2023-04-08T10:46:56.001Z,38.22
2023-04-08T10:49:33.520Z,38.21
2023-04-08T10:52:01.853Z,38.61
2023-04-08T10:54:31.373Z,38.50
2023-04-08T10:57:00.250Z,38.63
2023-04-08T10:59:29.736Z,38.92
2023-04-08T11:01:58.740Z,39.12
2023-04-08T11:04:27.677Z,39.21
2023-04-08T11:06:55.785Z,39.13
2023-04-08T11:09:23.593Z,39.28
2023-04-08T11:11:52.752Z,39.20
2023-04-08T11:14:22.228Z,39.12
2023-04-08T11:16:50.189Z,38.82
2023-04-08T11:19:18.717Z,38.84
2023-04-08T11:21:47.035Z,38.95
2023-04-08T11:24:16.945Z,38.70
2023-04-08T11:26:45.045Z,38.61
2023-04-08T11:29:14.745Z,38.89
2023-04-08T11:31:44.295Z,38.87
2023-04-08T11:34:12.391Z,38.68
2023-04-08T11:36:43.251Z,38.94
2023-04-08T11:39:12.321Z,38.69
2023-04-08T11:41:43.040Z,38.80
2023-04-08T11:44:11.015Z,38.91
2023-04-08T11:46:41.027Z,38.85
2023-04-08T11:49:10.261Z,38.76
2023-04-08T11:52:02.603Z,38.79
2023-04-08T11:54:32.742Z,38.73
2023-04-08T11:57:01.207Z,38.87
2023-04-08T11:59:29.948Z,39.02
2023-04-08T12:01:58.197Z,39.07
2023-04-08T12:04:26.354Z,39.18
2023-04-08T12:06:55.384Z,39.12
2023-04-08T12:09:24.627Z,39.50
2023-04-08T12:11:52.534Z,39.28
2023-04-08T12:14:22.296Z,39.57
2023-04-08T12:16:50.162Z,39.32
2023-04-08T12:19:18.146Z,39.69
2023-04-08T12:21:46.040Z,39.71
2023-04-08T12:24:13.972Z,39.81
2023-04-08T12:26:41.779Z,39.67
2023-04-08T12:29:12.907Z,39.80
2023-04-08T12:31:40.800Z,39.82
2023-04-08T12:34:08.616Z,39.49
2023-04-08T12:36:36.516Z,39.63
2023-04-08T12:39:04.317Z,38.99
2023-04-08T12:41:32.114Z,39.13
2023-04-08T12:44:00.463Z,39.38
2023-04-08T12:46:29.986Z,39.11
2023-04-08T12:49:04.320Z,38.87
2023-04-08T12:51:33.488Z,38.74
2023-04-08T12:54:02.160Z,38.71
2023-04-08T12:56:31.999Z,38.73
2023-04-08T12:59:01.152Z,38.87
2023-04-08T13:01:31.361Z,38.80
2023-04-08T13:03:59.569Z,38.77
2023-04-08T13:06:28.356Z,38.48
2023-04-08T13:08:56.438Z,38.47
2023-04-08T13:11:25.557Z,38.41
2023-04-08T13:13:53.487Z,38.61
2023-04-08T13:16:22.331Z,38.69
2023-04-08T13:18:50.358Z,38.50
2023-04-08T13:21:18.504Z,38.70
2023-04-08T13:23:47.208Z,38.22
2023-04-08T13:26:15.092Z,38.07
2023-04-08T13:28:55.926Z,38.55
2023-04-08T13:31:25.732Z,38.62
2023-04-08T13:33:56.890Z,38.18
2023-04-08T13:36:27.034Z,38.68
2023-04-08T13:38:54.938Z,38.48
2023-04-08T13:41:22.765Z,38.68
2023-04-08T13:43:50.652Z,38.63
2023-04-08T13:46:18.494Z,38.35
2023-04-08T13:48:46.647Z,38.46
2023-04-08T13:51:14.725Z,38.21
2023-04-08T13:53:42.525Z,38.51
2023-04-08T13:56:10.829Z,38.61
2023-04-08T13:58:38.694Z,38.62
2023-04-08T14:01:07.112Z,38.97
2023-04-08T14:03:34.934Z,38.76
2023-04-08T14:06:02.615Z,38.79
2023-04-08T14:08:30.672Z,38.88
2023-04-08T14:10:59.520Z,38.76
2023-04-08T14:13:27.295Z,38.96
2023-04-08T14:15:58.501Z,38.96
2023-04-08T14:18:26.668Z,39.02
2023-04-08T14:20:54.433Z,39.26
2023-04-08T14:23:22.553Z,39.02
2023-04-08T14:25:50.699Z,39.16
2023-04-08T14:28:18.580Z,39.23
2023-04-08T14:30:47.713Z,39.23
2023-04-08T14:33:15.546Z,39.28
2023-04-08T14:35:43.625Z,39.50
2023-04-08T14:38:11.850Z,39.43
2023-04-08T14:40:39.875Z,40.23
2023-04-08T14:43:07.771Z,40.06
2023-04-08T14:45:39.260Z,39.16
2023-04-08T14:48:08.267Z,39.06
2023-04-08T14:50:36.068Z,39.08
2023-04-08T14:53:03.736Z,38.88
2023-04-08T14:55:32.531Z,38.78
2023-04-08T14:58:01.294Z,38.66
2023-04-08T15:00:29.410Z,38.72
2023-04-08T15:02:57.412Z,38.85
2023-04-08T15:05:26.253Z,38.62
2023-04-08T15:07:54.415Z,38.12
2023-04-08T15:10:22.270Z,38.31
2023-04-08T15:12:50.086Z,38.24
2023-04-08T15:15:17.674Z,38.20
2023-04-08T15:17:46.017Z,38.01
2023-04-08T15:20:14.242Z,38.21
2023-04-08T15:22:42.453Z,38.15
2023-04-08T15:25:11.238Z,38.08
2023-04-08T15:27:39.845Z,38.35
2023-04-08T15:30:09.853Z,38.24
2023-04-08T15:32:39.151Z,38.51
2023-04-08T15:35:07.680Z,38.36
2023-04-08T15:37:35.401Z,39.25
2023-04-08T15:40:03.509Z,39.24
2023-04-08T15:42:31.657Z,38.92
2023-04-08T15:44:59.358Z,38.75
2023-04-08T15:47:27.880Z,38.55
2023-04-08T15:49:56.265Z,38.29
2023-04-08T15:52:24.151Z,38.63
2023-04-08T15:54:51.818Z,38.24
2023-04-08T15:57:22.359Z,38.32
2023-04-08T15:59:50.050Z,37.88
2023-04-08T16:02:18.053Z,37.86
2023-04-08T16:04:49.236Z,37.92
2023-04-08T16:07:17.418Z,37.82
2023-04-08T16:09:45.201Z,37.53
2023-04-08T16:12:15.105Z,37.82
2023-04-08T16:14:42.777Z,37.47
2023-04-08T16:17:10.564Z,37.50
2023-04-08T16:19:38.554Z,37.38
2023-04-08T16:22:06.592Z,37.16
2023-04-08T16:24:36.776Z,37.42
2023-04-08T16:27:04.748Z,37.23
2023-04-08T16:29:32.817Z,37.12
2023-04-08T16:32:02.031Z,37.14
2023-04-08T16:34:30.642Z,36.81
2023-04-08T16:36:58.516Z,37.01
2023-04-08T16:39:26.357Z,35.88
2023-04-08T16:41:54.128Z,36.05
2023-04-08T16:44:21.859Z,36.35
2023-04-08T16:46:49.530Z,35.80
2023-04-08T16:49:18.552Z,36.11
2023-04-08T16:51:46.424Z,35.94
2023-04-08T16:54:14.109Z,36.23
2023-04-08T16:56:46.612Z,36.19
2023-04-08T16:59:15.926Z,36.14
2023-04-08T17:01:46.704Z,35.79
2023-04-08T17:04:14.621Z,35.08
2023-04-08T17:06:42.834Z,34.99
2023-04-08T17:09:11.112Z,34.38
2023-04-08T17:11:38.968Z,34.51
2023-04-08T17:14:07.485Z,34.61
2023-04-08T17:16:35.980Z,34.25
2023-04-08T17:19:03.863Z,34.34
2023-04-08T17:21:32.725Z,34.19
2023-04-08T17:24:00.547Z,33.97
2023-04-08T17:26:28.647Z,33.90
2023-04-08T17:28:56.630Z,34.10
2023-04-08T17:31:24.469Z,34.26
2023-04-08T17:33:52.280Z,34.24
2023-04-08T17:36:20.171Z,33.96
2023-04-08T17:38:49.603Z,34.24
2023-04-08T17:41:29.823Z,33.99
2023-04-08T17:44:03.816Z,35.10
2023-04-08T17:46:33.093Z,37.49
2023-04-08T17:49:00.864Z,36.96
2023-04-08T17:51:30.368Z,35.79
2023-04-08T17:53:58.039Z,35.23
2023-04-08T17:56:27.949Z,34.95
2023-04-08T17:58:56.518Z,34.88
2023-04-08T18:01:25.692Z,34.78
2023-04-08T18:03:53.984Z,34.40
2023-04-08T18:06:23.937Z,34.12
2023-04-08T18:08:51.752Z,34.21
2023-04-08T18:11:21.142Z,33.66
2023-04-08T18:13:49.053Z,33.95
2023-04-08T18:16:18.334Z,33.12
2023-04-08T18:18:47.237Z,32.92
2023-04-08T18:21:17.984Z,32.50
2023-04-08T18:23:47.169Z,32.29
2023-04-08T18:26:14.798Z,31.83
2023-04-08T18:28:42.445Z,31.90
2023-04-08T18:31:10.621Z,31.83
2023-04-08T18:33:39.338Z,32.33
2023-04-08T18:36:09.067Z,31.94
2023-04-08T18:38:37.114Z,31.99
2023-04-08T18:41:04.985Z,31.87
2023-04-08T18:43:33.804Z,31.78
2023-04-08T18:46:02.076Z,31.80
2023-04-08T18:48:29.945Z,32.13
2023-04-08T18:50:58.042Z,31.83
2023-04-08T18:53:25.742Z,32.30
2023-04-08T18:55:53.928Z,31.91
2023-04-08T18:58:21.787Z,32.23
2023-04-08T19:00:49.665Z,31.95
2023-04-08T19:03:17.748Z,31.71
2023-04-08T19:05:46.688Z,31.79
2023-04-08T19:08:14.485Z,32.13
2023-04-08T19:10:42.367Z,32.44
2023-04-08T19:13:10.040Z,31.95
2023-04-08T19:15:38.392Z,31.80
2023-04-08T19:18:06.183Z,31.62
2023-04-08T19:20:33.944Z,31.97
2023-04-08T19:23:01.904Z,32.05
2023-04-08T19:25:29.618Z,31.93
2023-04-08T19:27:57.834Z,31.76
2023-04-08T19:30:25.852Z,32.06
2023-04-08T19:32:56.594Z,32.33
2023-04-08T19:35:24.594Z,32.57
2023-04-08T19:37:52.422Z,32.43
2023-04-08T19:40:20.457Z,32.61
2023-04-08T19:42:48.549Z,32.25
2023-04-08T19:45:16.378Z,32.31
2023-04-08T19:47:45.425Z,32.80
2023-04-08T19:50:13.594Z,33.43
2023-04-08T19:52:41.374Z,34.01
2023-04-08T19:55:10.728Z,34.63
2023-04-08T19:57:38.615Z,34.91
2023-04-08T20:00:07.108Z,35.83
2023-04-08T20:02:34.920Z,35.80
2023-04-08T20:05:03.259Z,35.18
2023-04-08T20:07:31.152Z,34.16
2023-04-08T20:09:59.020Z,33.94
2023-04-08T20:12:27.243Z,32.70
2023-04-08T20:14:55.495Z,31.67
2023-04-08T20:17:23.263Z,31.47
2023-04-08T20:19:51.199Z,31.78
2023-04-08T20:22:19.150Z,31.11
2023-04-08T20:24:48.113Z,31.10
2023-04-08T20:27:16.707Z,30.84
2023-04-08T20:29:45.362Z,30.79
2023-04-08T20:32:13.418Z,30.78
2023-04-08T20:34:41.848Z,30.45
2023-04-08T20:37:09.629Z,30.96
2023-04-08T20:39:37.651Z,30.47
2023-04-08T20:42:06.669Z,30.66
2023-04-08T20:44:34.731Z,30.73
2023-04-08T20:47:02.436Z,31.08
2023-04-08T20:49:30.362Z,30.92
2023-04-08T20:51:58.741Z,30.87
2023-04-08T20:54:26.716Z,30.97
2023-04-08T20:56:54.474Z,31.03
2023-04-08T20:59:22.458Z,31.35
2023-04-08T21:01:50.224Z,30.76
2023-04-08T21:04:17.955Z,30.61
2023-04-08T21:06:48.241Z,30.87
2023-04-08T21:09:16.551Z,30.41
2023-04-08T21:11:44.543Z,30.68
2023-04-08T21:14:12.653Z,30.74
2023-04-08T21:16:40.659Z,30.77
2023-04-08T21:19:08.430Z,30.67
2023-04-08T21:21:36.159Z,30.59
2023-04-08T21:24:07.215Z,29.86
2023-04-08T21:26:35.017Z,30.05
2023-04-08T21:29:02.841Z,29.89
2023-04-08T21:31:30.632Z,30.04
2023-04-08T21:33:58.745Z,29.92
2023-04-08T21:36:28.059Z,30.17
2023-04-08T21:38:57.176Z,30.52
2023-04-08T21:41:25.099Z,29.84
2023-04-08T21:43:53.928Z,30.11
2023-04-08T21:46:21.879Z,30.21
2023-04-08T21:48:49.941Z,30.34
2023-04-08T21:51:19.291Z,30.41
2023-04-08T21:53:47.088Z,30.58
2023-04-08T21:56:15.107Z,30.64
2023-04-08T21:58:44.409Z,30.94
2023-04-08T22:01:12.424Z,30.52
2023-04-08T22:03:40.290Z,31.24
2023-04-08T22:06:12.717Z,31.25
2023-04-08T22:08:44.436Z,31.15
2023-04-08T22:11:12.122Z,31.00
2023-04-08T22:13:39.988Z,31.07
2023-04-08T22:16:08.817Z,31.22
2023-04-08T22:18:36.825Z,30.91
2023-04-08T22:21:04.578Z,30.94
2023-04-08T22:23:32.455Z,30.95
2023-04-08T22:26:00.500Z,30.80
2023-04-08T22:28:28.284Z,31.05
2023-04-08T22:30:56.456Z,30.89
2023-04-08T22:33:24.297Z,30.98
2023-04-08T22:35:52.164Z,30.66
2023-04-08T22:38:19.990Z,30.05
2023-04-08T22:40:47.717Z,30.11
2023-04-08T22:43:15.853Z,29.70
2023-04-08T22:45:43.771Z,30.21
2023-04-08T22:48:11.698Z,30.24
2023-04-08T22:50:39.676Z,30.02
2023-04-08T22:53:07.654Z,30.17
2023-04-08T22:55:35.542Z,30.41
2023-04-08T22:58:03.365Z,30.25
2023-04-08T23:00:31.079Z,30.20
2023-04-08T23:02:59.003Z,30.55
2023-04-08T23:05:26.820Z,30.31
2023-04-08T23:07:54.579Z,30.50
2023-04-08T23:10:22.463Z,30.70
2023-04-08T23:12:50.424Z,30.24
2023-04-08T23:15:18.271Z,30.53
2023-04-08T23:17:46.064Z,30.82
2023-04-08T23:20:14.033Z,30.60
2023-04-08T23:22:43.013Z,30.48
2023-04-08T23:25:10.773Z,30.70
2023-04-08T23:27:38.649Z,30.79
2023-04-08T23:30:07.153Z,30.77
2023-04-08T23:32:35.984Z,30.38
2023-04-08T23:35:04.233Z,30.08
2023-04-08T23:37:32.138Z,30.39
2023-04-08T23:39:59.972Z,30.44
2023-04-08T23:42:27.720Z,30.04
2023-04-08T23:44:56.719Z,30.58
2023-04-08T23:47:24.442Z,30.34
2023-04-08T23:49:53.344Z,30.35
2023-04-08T23:52:21.155Z,30.27
2023-04-08T23:54:52.133Z,30.16
2023-04-08T23:57:23.183Z,30.21
2023-04-08T23:59:51.337Z,29.51
